sensor_id;sensor_type;location;lat;lon;timestamp;temperature;humidity
52941;DHT22;62001;53.366;6.636;2023-02-11T00:00:33;6.10;99.90
52941;DHT22;62001;53.366;6.636;2023-02-11T00:02:58;6.10;99.90
52941;DHT22;62001;53.366;6.636;2023-02-11T00:05:24;6.10;99.90
52941;DHT22;62001;53.366;6.636;2023-02-11T00:07:50;6.10;99.90
52941;DHT22;62001;53.366;6.636;2023-02-11T00:10:16;6.10;99.90
52941;DHT22;62001;53.366;6.636;2023-02-11T00:12:42;6.20;99.90
52941;DHT22;62001;53.366;6.636;2023-02-11T00:15:08;6.20;99.90
52941;DHT22;62001;53.366;6.636;2023-02-11T00:17:34;6.10;99.90
52941;DHT22;62001;53.366;6.636;2023-02-11T00:20:00;6.10;99.90
52941;DHT22;62001;53.366;6.636;2023-02-11T00:22:26;6.10;99.90
52941;DHT22;62001;53.366;6.636;2023-02-11T00:24:52;6.10;99.90
52941;DHT22;62001;53.366;6.636;2023-02-11T00:27:18;6.10;99.90
52941;DHT22;62001;53.366;6.636;2023-02-11T00:29:44;6.10;99.90
52941;DHT22;62001;53.366;6.636;2023-02-11T00:32:10;6.10;99.90
52941;DHT22;62001;53.366;6.636;2023-02-11T00:34:36;6.10;99.90
52941;DHT22;62001;53.366;6.636;2023-02-11T00:37:03;6.10;99.90
52941;DHT22;62001;53.366;6.636;2023-02-11T00:39:29;6.20;99.90
52941;DHT22;62001;53.366;6.636;2023-02-11T00:41:56;6.20;99.90
52941;DHT22;62001;53.366;6.636;2023-02-11T00:44:22;6.20;99.90
52941;DHT22;62001;53.366;6.636;2023-02-11T00:46:48;6.20;99.90
52941;DHT22;62001;53.366;6.636;2023-02-11T00:49:14;6.20;99.90
52941;DHT22;62001;53.366;6.636;2023-02-11T00:51:40;6.20;99.90
52941;DHT22;62001;53.366;6.636;2023-02-11T00:54:06;6.20;99.90
52941;DHT22;62001;53.366;6.636;2023-02-11T00:56:32;6.20;99.90
52941;DHT22;62001;53.366;6.636;2023-02-11T00:58:58;6.20;99.90
52941;DHT22;62001;53.366;6.636;2023-02-11T01:01:24;6.20;99.90
52941;DHT22;62001;53.366;6.636;2023-02-11T01:03:50;6.20;99.90
52941;DHT22;62001;53.366;6.636;2023-02-11T01:06:16;6.20;99.90
52941;DHT22;62001;53.366;6.636;2023-02-11T01:08:42;6.30;99.90
52941;DHT22;62001;53.366;6.636;2023-02-11T01:11:16;6.20;99.90
52941;DHT22;62001;53.366;6.636;2023-02-11T01:13:42;6.20;99.90
52941;DHT22;62001;53.366;6.636;2023-02-11T01:16:10;6.30;99.90
52941;DHT22;62001;53.366;6.636;2023-02-11T01:18:36;6.20;99.90
52941;DHT22;62001;53.366;6.636;2023-02-11T01:21:02;6.30;99.90
52941;DHT22;62001;53.366;6.636;2023-02-11T01:23:28;6.30;99.90
52941;DHT22;62001;53.366;6.636;2023-02-11T01:25:55;6.30;99.90
52941;DHT22;62001;53.366;6.636;2023-02-11T01:28:23;6.30;99.90
52941;DHT22;62001;53.366;6.636;2023-02-11T01:30:50;6.30;99.90
52941;DHT22;62001;53.366;6.636;2023-02-11T01:33:16;6.30;99.90
52941;DHT22;62001;53.366;6.636;2023-02-11T01:35:42;6.30;99.90
52941;DHT22;62001;53.366;6.636;2023-02-11T01:38:16;6.30;99.90
52941;DHT22;62001;53.366;6.636;2023-02-11T01:40:57;6.40;99.90
52941;DHT22;62001;53.366;6.636;2023-02-11T01:43:23;6.40;99.90
52941;DHT22;62001;53.366;6.636;2023-02-11T01:48:41;6.40;99.90
52941;DHT22;62001;53.366;6.636;2023-02-11T01:51:17;6.40;99.90
52941;DHT22;62001;53.366;6.636;2023-02-11T01:53:47;6.40;99.90
52941;DHT22;62001;53.366;6.636;2023-02-11T01:56:38;6.40;99.90
52941;DHT22;62001;53.366;6.636;2023-02-11T01:59:37;6.40;99.90
52941;DHT22;62001;53.366;6.636;2023-02-11T02:02:10;6.40;99.90
52941;DHT22;62001;53.366;6.636;2023-02-11T02:04:43;6.40;99.90
52941;DHT22;62001;53.366;6.636;2023-02-11T02:07:16;6.40;99.90
52941;DHT22;62001;53.366;6.636;2023-02-11T02:09:47;6.40;99.90
52941;DHT22;62001;53.366;6.636;2023-02-11T02:12:14;6.40;99.90
52941;DHT22;62001;53.366;6.636;2023-02-11T02:14:40;6.40;99.90
52941;DHT22;62001;53.366;6.636;2023-02-11T02:17:15;6.50;99.90
52941;DHT22;62001;53.366;6.636;2023-02-11T02:28:24;6.40;99.90
52941;DHT22;62001;53.366;6.636;2023-02-11T02:33:59;6.50;99.90
52941;DHT22;62001;53.366;6.636;2023-02-11T02:36:46;6.50;99.90
52941;DHT22;62001;53.366;6.636;2023-02-11T02:39:33;6.50;99.90
52941;DHT22;62001;53.366;6.636;2023-02-11T02:42:00;6.50;99.90
52941;DHT22;62001;53.366;6.636;2023-02-11T02:44:27;6.50;99.90
52941;DHT22;62001;53.366;6.636;2023-02-11T02:46:53;6.60;99.90
52941;DHT22;62001;53.366;6.636;2023-02-11T02:49:19;6.60;99.90
52941;DHT22;62001;53.366;6.636;2023-02-11T03:08:53;6.80;99.90
52941;DHT22;62001;53.366;6.636;2023-02-11T03:11:19;6.80;99.90
52941;DHT22;62001;53.366;6.636;2023-02-11T03:13:47;6.80;99.90
52941;DHT22;62001;53.366;6.636;2023-02-11T03:16:20;6.80;99.90
52941;DHT22;62001;53.366;6.636;2023-02-11T03:18:55;6.90;99.90
52941;DHT22;62001;53.366;6.636;2023-02-11T03:21:23;6.90;99.90
52941;DHT22;62001;53.366;6.636;2023-02-11T03:23:55;7.00;99.90
52941;DHT22;62001;53.366;6.636;2023-02-11T03:26:30;7.00;99.90
52941;DHT22;62001;53.366;6.636;2023-02-11T03:34:52;7.10;99.90
52941;DHT22;62001;53.366;6.636;2023-02-11T03:37:24;7.10;99.90
52941;DHT22;62001;53.366;6.636;2023-02-11T03:39:56;7.10;99.90
52941;DHT22;62001;53.366;6.636;2023-02-11T03:42:27;7.20;99.90
52941;DHT22;62001;53.366;6.636;2023-02-11T03:45:05;7.20;99.90
52941;DHT22;62001;53.366;6.636;2023-02-11T03:47:34;7.20;99.90
52941;DHT22;62001;53.366;6.636;2023-02-11T03:50:04;7.20;99.90
52941;DHT22;62001;53.366;6.636;2023-02-11T03:52:31;7.30;99.90
52941;DHT22;62001;53.366;6.636;2023-02-11T03:54:59;7.30;99.90
52941;DHT22;62001;53.366;6.636;2023-02-11T03:57:26;7.30;99.90
52941;DHT22;62001;53.366;6.636;2023-02-11T03:59:57;7.30;99.90
52941;DHT22;62001;53.366;6.636;2023-02-11T04:02:27;7.30;99.90
52941;DHT22;62001;53.366;6.636;2023-02-11T04:04:54;7.40;99.90
52941;DHT22;62001;53.366;6.636;2023-02-11T04:07:20;7.30;99.90
52941;DHT22;62001;53.366;6.636;2023-02-11T04:09:45;7.40;99.90
52941;DHT22;62001;53.366;6.636;2023-02-11T04:12:11;7.30;99.90
52941;DHT22;62001;53.366;6.636;2023-02-11T04:14:37;7.30;99.90
52941;DHT22;62001;53.366;6.636;2023-02-11T04:17:03;7.40;99.90
52941;DHT22;62001;53.366;6.636;2023-02-11T04:19:29;7.40;99.90
52941;DHT22;62001;53.366;6.636;2023-02-11T04:21:56;7.40;99.90
52941;DHT22;62001;53.366;6.636;2023-02-11T04:24:22;7.40;99.90
52941;DHT22;62001;53.366;6.636;2023-02-11T04:26:47;7.40;99.90
52941;DHT22;62001;53.366;6.636;2023-02-11T04:29:13;7.40;99.90
52941;DHT22;62001;53.366;6.636;2023-02-11T04:31:39;7.40;99.90
52941;DHT22;62001;53.366;6.636;2023-02-11T04:34:05;7.40;99.90
52941;DHT22;62001;53.366;6.636;2023-02-11T04:36:31;7.40;99.90
52941;DHT22;62001;53.366;6.636;2023-02-11T04:38:57;7.40;99.90
52941;DHT22;62001;53.366;6.636;2023-02-11T04:41:22;7.40;99.90
52941;DHT22;62001;53.366;6.636;2023-02-11T04:43:48;7.40;99.90
52941;DHT22;62001;53.366;6.636;2023-02-11T04:46:14;7.40;99.90
52941;DHT22;62001;53.366;6.636;2023-02-11T04:48:40;7.40;99.90
52941;DHT22;62001;53.366;6.636;2023-02-11T04:51:06;7.40;99.90
52941;DHT22;62001;53.366;6.636;2023-02-11T04:53:32;7.40;99.90
52941;DHT22;62001;53.366;6.636;2023-02-11T04:55:58;7.40;99.90
52941;DHT22;62001;53.366;6.636;2023-02-11T04:58:23;7.40;99.90
52941;DHT22;62001;53.366;6.636;2023-02-11T05:00:49;7.40;99.90
52941;DHT22;62001;53.366;6.636;2023-02-11T05:03:16;7.40;99.90
52941;DHT22;62001;53.366;6.636;2023-02-11T05:05:42;7.40;99.90
52941;DHT22;62001;53.366;6.636;2023-02-11T05:08:09;7.40;99.90
52941;DHT22;62001;53.366;6.636;2023-02-11T05:10:35;7.50;99.90
52941;DHT22;62001;53.366;6.636;2023-02-11T05:13:01;7.50;99.90
52941;DHT22;62001;53.366;6.636;2023-02-11T05:15:27;7.40;99.90
52941;DHT22;62001;53.366;6.636;2023-02-11T05:17:53;7.40;99.90
52941;DHT22;62001;53.366;6.636;2023-02-11T05:20:19;7.40;99.90
52941;DHT22;62001;53.366;6.636;2023-02-11T05:22:45;7.40;99.90
52941;DHT22;62001;53.366;6.636;2023-02-11T05:25:11;7.50;99.90
52941;DHT22;62001;53.366;6.636;2023-02-11T05:27:37;7.50;99.90
52941;DHT22;62001;53.366;6.636;2023-02-11T05:30:04;7.50;99.90
52941;DHT22;62001;53.366;6.636;2023-02-11T05:32:30;7.40;99.90
52941;DHT22;62001;53.366;6.636;2023-02-11T05:34:56;7.40;99.90
52941;DHT22;62001;53.366;6.636;2023-02-11T05:37:22;7.40;99.90
52941;DHT22;62001;53.366;6.636;2023-02-11T05:39:48;7.40;99.90
52941;DHT22;62001;53.366;6.636;2023-02-11T05:42:14;7.40;99.90
52941;DHT22;62001;53.366;6.636;2023-02-11T05:44:39;7.40;99.90
52941;DHT22;62001;53.366;6.636;2023-02-11T05:47:06;7.40;99.90
52941;DHT22;62001;53.366;6.636;2023-02-11T05:49:33;7.40;99.90
52941;DHT22;62001;53.366;6.636;2023-02-11T05:51:59;7.40;99.90
52941;DHT22;62001;53.366;6.636;2023-02-11T05:54:25;7.40;99.90
52941;DHT22;62001;53.366;6.636;2023-02-11T05:56:51;7.40;99.90
52941;DHT22;62001;53.366;6.636;2023-02-11T05:59:17;7.40;99.90
52941;DHT22;62001;53.366;6.636;2023-02-11T06:01:43;7.40;99.90
52941;DHT22;62001;53.366;6.636;2023-02-11T06:04:09;7.40;99.90
52941;DHT22;62001;53.366;6.636;2023-02-11T06:06:35;7.40;99.90
52941;DHT22;62001;53.366;6.636;2023-02-11T06:09:01;7.40;99.90
52941;DHT22;62001;53.366;6.636;2023-02-11T06:11:27;7.40;99.90
52941;DHT22;62001;53.366;6.636;2023-02-11T06:13:53;7.40;99.90
52941;DHT22;62001;53.366;6.636;2023-02-11T06:16:19;7.40;99.90
52941;DHT22;62001;53.366;6.636;2023-02-11T06:18:44;7.30;99.90
52941;DHT22;62001;53.366;6.636;2023-02-11T06:21:11;7.30;99.90
52941;DHT22;62001;53.366;6.636;2023-02-11T06:23:37;7.30;99.90
52941;DHT22;62001;53.366;6.636;2023-02-11T06:26:05;7.30;99.90
52941;DHT22;62001;53.366;6.636;2023-02-11T06:28:32;7.30;99.90
52941;DHT22;62001;53.366;6.636;2023-02-11T06:31:03;7.30;99.90
52941;DHT22;62001;53.366;6.636;2023-02-11T06:33:28;7.30;99.90
52941;DHT22;62001;53.366;6.636;2023-02-11T06:35:54;7.30;99.90
52941;DHT22;62001;53.366;6.636;2023-02-11T06:38:20;7.30;99.90
52941;DHT22;62001;53.366;6.636;2023-02-11T06:40:47;7.30;99.90
52941;DHT22;62001;53.366;6.636;2023-02-11T06:43:14;7.30;99.90
52941;DHT22;62001;53.366;6.636;2023-02-11T06:45:40;7.30;99.90
52941;DHT22;62001;53.366;6.636;2023-02-11T06:48:05;7.30;99.90
52941;DHT22;62001;53.366;6.636;2023-02-11T06:50:31;7.40;99.90
52941;DHT22;62001;53.366;6.636;2023-02-11T06:53:00;7.40;99.90
52941;DHT22;62001;53.366;6.636;2023-02-11T06:55:26;7.40;99.90
52941;DHT22;62001;53.366;6.636;2023-02-11T06:57:52;7.40;99.90
52941;DHT22;62001;53.366;6.636;2023-02-11T07:00:18;7.40;99.90
52941;DHT22;62001;53.366;6.636;2023-02-11T07:02:44;7.40;99.90
52941;DHT22;62001;53.366;6.636;2023-02-11T07:05:10;7.40;99.90
52941;DHT22;62001;53.366;6.636;2023-02-11T07:07:36;7.40;99.90
52941;DHT22;62001;53.366;6.636;2023-02-11T07:10:03;7.40;99.90
52941;DHT22;62001;53.366;6.636;2023-02-11T07:12:30;7.40;99.90
52941;DHT22;62001;53.366;6.636;2023-02-11T07:14:57;7.40;99.90
52941;DHT22;62001;53.366;6.636;2023-02-11T07:17:23;7.40;99.90
52941;DHT22;62001;53.366;6.636;2023-02-11T07:19:49;7.40;99.90
52941;DHT22;62001;53.366;6.636;2023-02-11T07:22:14;7.40;99.90
52941;DHT22;62001;53.366;6.636;2023-02-11T07:24:40;7.40;99.90
52941;DHT22;62001;53.366;6.636;2023-02-11T07:27:06;7.30;99.90
52941;DHT22;62001;53.366;6.636;2023-02-11T07:29:32;7.30;99.90
52941;DHT22;62001;53.366;6.636;2023-02-11T07:31:58;7.30;99.90
52941;DHT22;62001;53.366;6.636;2023-02-11T07:34:24;7.30;99.90
52941;DHT22;62001;53.366;6.636;2023-02-11T07:36:50;7.30;99.90
52941;DHT22;62001;53.366;6.636;2023-02-11T07:39:16;7.30;99.90
52941;DHT22;62001;53.366;6.636;2023-02-11T07:41:41;7.30;99.90
52941;DHT22;62001;53.366;6.636;2023-02-11T07:44:09;7.30;99.90
52941;DHT22;62001;53.366;6.636;2023-02-11T07:46:34;7.30;99.90
52941;DHT22;62001;53.366;6.636;2023-02-11T07:49:00;7.30;99.90
52941;DHT22;62001;53.366;6.636;2023-02-11T07:51:28;7.30;99.90
52941;DHT22;62001;53.366;6.636;2023-02-11T07:53:56;7.30;99.90
52941;DHT22;62001;53.366;6.636;2023-02-11T07:56:23;7.30;99.90
52941;DHT22;62001;53.366;6.636;2023-02-11T07:58:49;7.30;99.90
52941;DHT22;62001;53.366;6.636;2023-02-11T08:01:19;7.40;99.90
52941;DHT22;62001;53.366;6.636;2023-02-11T08:03:47;7.40;99.90
52941;DHT22;62001;53.366;6.636;2023-02-11T08:06:15;7.40;99.90
52941;DHT22;62001;53.366;6.636;2023-02-11T08:08:41;7.40;99.90
52941;DHT22;62001;53.366;6.636;2023-02-11T08:11:10;7.50;99.90
52941;DHT22;62001;53.366;6.636;2023-02-11T08:13:37;7.50;99.90
52941;DHT22;62001;53.366;6.636;2023-02-11T08:16:04;7.60;99.90
52941;DHT22;62001;53.366;6.636;2023-02-11T08:18:31;7.60;99.90
52941;DHT22;62001;53.366;6.636;2023-02-11T08:21:07;7.70;99.90
52941;DHT22;62001;53.366;6.636;2023-02-11T08:23:37;7.70;99.90
52941;DHT22;62001;53.366;6.636;2023-02-11T08:26:04;7.70;99.90
52941;DHT22;62001;53.366;6.636;2023-02-11T08:28:31;7.80;99.90
52941;DHT22;62001;53.366;6.636;2023-02-11T08:31:06;7.90;99.90
52941;DHT22;62001;53.366;6.636;2023-02-11T08:33:33;7.90;99.90
52941;DHT22;62001;53.366;6.636;2023-02-11T08:35:59;8.00;99.90
52941;DHT22;62001;53.366;6.636;2023-02-11T08:38:25;8.00;99.90
52941;DHT22;62001;53.366;6.636;2023-02-11T08:40:51;8.10;99.90
52941;DHT22;62001;53.366;6.636;2023-02-11T08:43:17;8.10;99.90
52941;DHT22;62001;53.366;6.636;2023-02-11T08:45:43;8.20;99.90
52941;DHT22;62001;53.366;6.636;2023-02-11T08:48:09;8.20;99.90
52941;DHT22;62001;53.366;6.636;2023-02-11T08:50:38;8.20;99.90
52941;DHT22;62001;53.366;6.636;2023-02-11T08:53:04;8.30;99.90
52941;DHT22;62001;53.366;6.636;2023-02-11T08:55:30;8.30;99.90
52941;DHT22;62001;53.366;6.636;2023-02-11T08:57:56;8.40;99.90
52941;DHT22;62001;53.366;6.636;2023-02-11T09:00:22;8.50;99.90
52941;DHT22;62001;53.366;6.636;2023-02-11T09:02:47;8.50;99.90
52941;DHT22;62001;53.366;6.636;2023-02-11T09:05:13;8.60;99.90
52941;DHT22;62001;53.366;6.636;2023-02-11T09:07:39;8.70;99.90
52941;DHT22;62001;53.366;6.636;2023-02-11T09:10:05;8.80;99.90
52941;DHT22;62001;53.366;6.636;2023-02-11T09:12:31;8.80;99.90
52941;DHT22;62001;53.366;6.636;2023-02-11T09:14:57;8.90;99.90
52941;DHT22;62001;53.366;6.636;2023-02-11T09:17:23;9.00;99.90
52941;DHT22;62001;53.366;6.636;2023-02-11T09:19:49;9.10;99.90
52941;DHT22;62001;53.366;6.636;2023-02-11T09:22:15;9.10;99.90
52941;DHT22;62001;53.366;6.636;2023-02-11T09:24:40;9.20;99.90
52941;DHT22;62001;53.366;6.636;2023-02-11T09:27:06;9.20;99.90
52941;DHT22;62001;53.366;6.636;2023-02-11T09:29:32;9.30;99.90
52941;DHT22;62001;53.366;6.636;2023-02-11T09:31:58;9.30;99.90
52941;DHT22;62001;53.366;6.636;2023-02-11T09:34:24;9.40;99.90
52941;DHT22;62001;53.366;6.636;2023-02-11T09:36:49;9.40;99.90
52941;DHT22;62001;53.366;6.636;2023-02-11T09:39:17;9.50;99.90
52941;DHT22;62001;53.366;6.636;2023-02-11T09:44:31;9.60;99.90
52941;DHT22;62001;53.366;6.636;2023-02-11T09:47:01;9.80;99.90
52941;DHT22;62001;53.366;6.636;2023-02-11T09:49:37;9.90;99.90
52941;DHT22;62001;53.366;6.636;2023-02-11T09:52:20;10.00;99.90
52941;DHT22;62001;53.366;6.636;2023-02-11T09:54:54;10.00;99.90
52941;DHT22;62001;53.366;6.636;2023-02-11T09:57:21;10.00;99.90
52941;DHT22;62001;53.366;6.636;2023-02-11T09:59:47;10.00;99.90
52941;DHT22;62001;53.366;6.636;2023-02-11T10:02:28;10.00;99.90
52941;DHT22;62001;53.366;6.636;2023-02-11T10:24:33;9.90;99.90
52941;DHT22;62001;53.366;6.636;2023-02-11T10:27:03;10.50;99.90
52941;DHT22;62001;53.366;6.636;2023-02-11T10:29:52;10.40;99.90
52941;DHT22;62001;53.366;6.636;2023-02-11T10:34:56;10.40;99.90
52941;DHT22;62001;53.366;6.636;2023-02-11T10:37:23;10.30;99.90
52941;DHT22;62001;53.366;6.636;2023-02-11T10:39:48;10.30;99.90
52941;DHT22;62001;53.366;6.636;2023-02-11T10:42:15;10.30;99.90
52941;DHT22;62001;53.366;6.636;2023-02-11T10:44:57;10.30;99.90
52941;DHT22;62001;53.366;6.636;2023-02-11T10:47:27;10.30;99.90
52941;DHT22;62001;53.366;6.636;2023-02-11T10:49:54;10.20;99.90
52941;DHT22;62001;53.366;6.636;2023-02-11T10:52:24;10.20;99.90
52941;DHT22;62001;53.366;6.636;2023-02-11T10:57:51;10.30;99.90
52941;DHT22;62001;53.366;6.636;2023-02-11T11:00:37;10.40;99.90
52941;DHT22;62001;53.366;6.636;2023-02-11T11:03:26;10.40;99.90
52941;DHT22;62001;53.366;6.636;2023-02-11T11:05:56;10.50;99.90
52941;DHT22;62001;53.366;6.636;2023-02-11T11:08:44;10.50;99.90
52941;DHT22;62001;53.366;6.636;2023-02-11T11:11:13;10.50;99.90
52941;DHT22;62001;53.366;6.636;2023-02-11T11:16:27;10.50;99.90
52941;DHT22;62001;53.366;6.636;2023-02-11T11:24:43;10.50;99.90
52941;DHT22;62001;53.366;6.636;2023-02-11T11:27:17;10.60;99.90
52941;DHT22;62001;53.366;6.636;2023-02-11T11:29:49;10.50;99.90
52941;DHT22;62001;53.366;6.636;2023-02-11T11:34:54;10.50;99.90
52941;DHT22;62001;53.366;6.636;2023-02-11T11:37:29;10.60;99.90
52941;DHT22;62001;53.366;6.636;2023-02-11T11:42:27;10.80;99.90
52941;DHT22;62001;53.366;6.636;2023-02-11T11:45:00;10.90;99.90
52941;DHT22;62001;53.366;6.636;2023-02-11T11:47:33;10.80;99.90
52941;DHT22;62001;53.366;6.636;2023-02-11T11:50:19;10.70;99.90
52941;DHT22;62001;53.366;6.636;2023-02-11T11:52:59;10.70;99.90
52941;DHT22;62001;53.366;6.636;2023-02-11T11:56:04;10.80;99.90
52941;DHT22;62001;53.366;6.636;2023-02-11T11:58:32;11.00;99.90
52941;DHT22;62001;53.366;6.636;2023-02-11T12:04:06;11.20;99.90
52941;DHT22;62001;53.366;6.636;2023-02-11T12:24:01;10.70;99.90
52941;DHT22;62001;53.366;6.636;2023-02-11T12:26:45;10.60;99.90
52941;DHT22;62001;53.366;6.636;2023-02-11T12:34:57;10.40;99.90
52941;DHT22;62001;53.366;6.636;2023-02-11T12:43:22;10.30;99.90
52941;DHT22;62001;53.366;6.636;2023-02-11T12:46:18;10.20;99.90
52941;DHT22;62001;53.366;6.636;2023-02-11T12:49:03;10.30;99.90
52941;DHT22;62001;53.366;6.636;2023-02-11T12:51:53;10.20;99.90
52941;DHT22;62001;53.366;6.636;2023-02-11T12:54:30;10.20;99.90
52941;DHT22;62001;53.366;6.636;2023-02-11T12:57:17;10.20;99.90
52941;DHT22;62001;53.366;6.636;2023-02-11T13:08:05;10.10;99.90
52941;DHT22;62001;53.366;6.636;2023-02-11T13:10:36;10.10;99.90
52941;DHT22;62001;53.366;6.636;2023-02-11T13:13:32;10.10;99.90
52941;DHT22;62001;53.366;6.636;2023-02-11T13:16:12;10.20;99.90
52941;DHT22;62001;53.366;6.636;2023-02-11T13:19:04;10.10;99.90
52941;DHT22;62001;53.366;6.636;2023-02-11T13:24:18;10.10;99.90
52941;DHT22;62001;53.366;6.636;2023-02-11T13:26:56;10.10;99.90
52941;DHT22;62001;53.366;6.636;2023-02-11T13:32:13;10.20;99.90
52941;DHT22;62001;53.366;6.636;2023-02-11T13:40:04;10.20;99.90
52941;DHT22;62001;53.366;6.636;2023-02-11T13:42:32;10.10;99.90
52941;DHT22;62001;53.366;6.636;2023-02-11T13:44:59;10.00;99.90
52941;DHT22;62001;53.366;6.636;2023-02-11T13:47:31;9.90;99.90
52941;DHT22;62001;53.366;6.636;2023-02-11T13:49:59;9.80;99.90
52941;DHT22;62001;53.366;6.636;2023-02-11T13:52:34;9.80;99.90
52941;DHT22;62001;53.366;6.636;2023-02-11T13:57:40;9.70;99.90
52941;DHT22;62001;53.366;6.636;2023-02-11T14:00:41;9.60;99.90
52941;DHT22;62001;53.366;6.636;2023-02-11T14:14:29;10.00;99.90
52941;DHT22;62001;53.366;6.636;2023-02-11T14:19:36;10.10;99.90
52941;DHT22;62001;53.366;6.636;2023-02-11T14:27:08;10.20;99.90
52941;DHT22;62001;53.366;6.636;2023-02-11T14:32:53;10.20;99.90
52941;DHT22;62001;53.366;6.636;2023-02-11T14:35:29;10.20;99.90
52941;DHT22;62001;53.366;6.636;2023-02-11T14:43:26;10.10;99.90
52941;DHT22;62001;53.366;6.636;2023-02-11T14:45:55;10.00;99.90
52941;DHT22;62001;53.366;6.636;2023-02-11T14:48:30;10.00;99.90
52941;DHT22;62001;53.366;6.636;2023-02-11T14:51:07;10.00;99.90
52941;DHT22;62001;53.366;6.636;2023-02-11T14:53:35;9.90;99.90
52941;DHT22;62001;53.366;6.636;2023-02-11T14:56:02;9.80;99.90
52941;DHT22;62001;53.366;6.636;2023-02-11T14:58:46;9.80;99.90
52941;DHT22;62001;53.366;6.636;2023-02-11T15:01:40;9.70;99.90
52941;DHT22;62001;53.366;6.636;2023-02-11T15:04:25;9.70;99.90
52941;DHT22;62001;53.366;6.636;2023-02-11T15:06:52;9.60;99.90
52941;DHT22;62001;53.366;6.636;2023-02-11T15:09:24;9.60;99.90
52941;DHT22;62001;53.366;6.636;2023-02-11T15:11:55;9.50;99.90
52941;DHT22;62001;53.366;6.636;2023-02-11T15:14:27;9.40;99.90
52941;DHT22;62001;53.366;6.636;2023-02-11T15:16:56;9.40;99.90
52941;DHT22;62001;53.366;6.636;2023-02-11T15:19:23;9.30;99.90
52941;DHT22;62001;53.366;6.636;2023-02-11T15:21:51;9.30;99.90
52941;DHT22;62001;53.366;6.636;2023-02-11T15:24:29;9.30;99.90
52941;DHT22;62001;53.366;6.636;2023-02-11T15:29:42;9.20;99.90
52941;DHT22;62001;53.366;6.636;2023-02-11T15:34:35;9.10;99.90
52941;DHT22;62001;53.366;6.636;2023-02-11T15:37:03;9.10;99.90
52941;DHT22;62001;53.366;6.636;2023-02-11T15:39:38;9.00;99.90
52941;DHT22;62001;53.366;6.636;2023-02-11T15:42:28;9.00;99.90
52941;DHT22;62001;53.366;6.636;2023-02-11T15:47:50;8.90;99.90
52941;DHT22;62001;53.366;6.636;2023-02-11T15:50:25;8.80;99.90
52941;DHT22;62001;53.366;6.636;2023-02-11T15:52:52;8.80;99.90
52941;DHT22;62001;53.366;6.636;2023-02-11T15:55:19;8.70;99.90
52941;DHT22;62001;53.366;6.636;2023-02-11T15:57:51;8.70;99.90
52941;DHT22;62001;53.366;6.636;2023-02-11T16:00:19;8.70;99.90
52941;DHT22;62001;53.366;6.636;2023-02-11T16:02:46;8.60;99.90
52941;DHT22;62001;53.366;6.636;2023-02-11T16:07:53;8.60;99.90
52941;DHT22;62001;53.366;6.636;2023-02-11T16:10:28;8.60;99.90
52941;DHT22;62001;53.366;6.636;2023-02-11T16:18:03;8.50;99.90
52941;DHT22;62001;53.366;6.636;2023-02-11T16:20:30;8.50;99.90
52941;DHT22;62001;53.366;6.636;2023-02-11T16:22:56;8.50;99.90
52941;DHT22;62001;53.366;6.636;2023-02-11T16:25:22;8.50;99.90
52941;DHT22;62001;53.366;6.636;2023-02-11T16:27:51;8.40;99.90
52941;DHT22;62001;53.366;6.636;2023-02-11T16:30:31;8.40;99.90
52941;DHT22;62001;53.366;6.636;2023-02-11T16:32:57;8.40;99.90
52941;DHT22;62001;53.366;6.636;2023-02-11T16:35:23;8.40;99.90
52941;DHT22;62001;53.366;6.636;2023-02-11T16:37:49;8.40;99.90
52941;DHT22;62001;53.366;6.636;2023-02-11T16:40:15;8.40;99.90
52941;DHT22;62001;53.366;6.636;2023-02-11T16:42:41;8.30;99.90
52941;DHT22;62001;53.366;6.636;2023-02-11T16:45:07;8.40;99.90
52941;DHT22;62001;53.366;6.636;2023-02-11T16:47:34;8.40;99.90
52941;DHT22;62001;53.366;6.636;2023-02-11T16:50:00;8.30;99.90
52941;DHT22;62001;53.366;6.636;2023-02-11T16:52:27;8.30;99.90
52941;DHT22;62001;53.366;6.636;2023-02-11T16:54:55;8.30;99.90
52941;DHT22;62001;53.366;6.636;2023-02-11T16:57:23;8.30;99.90
52941;DHT22;62001;53.366;6.636;2023-02-11T16:59:50;8.30;99.90
52941;DHT22;62001;53.366;6.636;2023-02-11T17:04:48;8.30;99.90
52941;DHT22;62001;53.366;6.636;2023-02-11T17:07:14;8.20;99.90
52941;DHT22;62001;53.366;6.636;2023-02-11T17:09:40;8.20;99.90
52941;DHT22;62001;53.366;6.636;2023-02-11T17:12:06;8.20;99.90
52941;DHT22;62001;53.366;6.636;2023-02-11T17:14:32;8.20;99.90
52941;DHT22;62001;53.366;6.636;2023-02-11T17:16:57;8.20;99.90
52941;DHT22;62001;53.366;6.636;2023-02-11T17:19:23;8.20;99.90
52941;DHT22;62001;53.366;6.636;2023-02-11T17:21:51;8.20;99.90
52941;DHT22;62001;53.366;6.636;2023-02-11T17:24:18;8.20;99.90
52941;DHT22;62001;53.366;6.636;2023-02-11T17:26:44;8.20;99.90
52941;DHT22;62001;53.366;6.636;2023-02-11T17:29:14;8.20;99.90
52941;DHT22;62001;53.366;6.636;2023-02-11T17:31:41;8.20;99.90
52941;DHT22;62001;53.366;6.636;2023-02-11T17:34:07;8.20;99.90
52941;DHT22;62001;53.366;6.636;2023-02-11T17:36:33;8.10;99.90
52941;DHT22;62001;53.366;6.636;2023-02-11T17:39:00;8.10;99.90
52941;DHT22;62001;53.366;6.636;2023-02-11T17:41:26;8.10;99.90
52941;DHT22;62001;53.366;6.636;2023-02-11T17:43:52;8.10;99.90
52941;DHT22;62001;53.366;6.636;2023-02-11T17:46:19;8.10;99.90
52941;DHT22;62001;53.366;6.636;2023-02-11T17:48:44;8.10;99.90
52941;DHT22;62001;53.366;6.636;2023-02-11T17:51:25;8.10;99.90
52941;DHT22;62001;53.366;6.636;2023-02-11T17:53:52;8.10;99.90
52941;DHT22;62001;53.366;6.636;2023-02-11T17:56:19;8.10;99.90
52941;DHT22;62001;53.366;6.636;2023-02-11T17:58:45;8.10;99.90
52941;DHT22;62001;53.366;6.636;2023-02-11T18:01:11;8.10;99.90
52941;DHT22;62001;53.366;6.636;2023-02-11T18:03:37;8.00;99.90
52941;DHT22;62001;53.366;6.636;2023-02-11T18:06:04;8.00;99.90
52941;DHT22;62001;53.366;6.636;2023-02-11T18:08:31;8.00;99.90
52941;DHT22;62001;53.366;6.636;2023-02-11T18:10:57;8.00;99.90
52941;DHT22;62001;53.366;6.636;2023-02-11T18:13:23;8.00;99.90
52941;DHT22;62001;53.366;6.636;2023-02-11T18:15:49;8.00;99.90
52941;DHT22;62001;53.366;6.636;2023-02-11T18:18:15;8.00;99.90
52941;DHT22;62001;53.366;6.636;2023-02-11T18:20:41;8.00;99.90
52941;DHT22;62001;53.366;6.636;2023-02-11T18:23:09;8.00;99.90
52941;DHT22;62001;53.366;6.636;2023-02-11T18:25:35;8.00;99.90
52941;DHT22;62001;53.366;6.636;2023-02-11T18:28:01;8.00;99.90
52941;DHT22;62001;53.366;6.636;2023-02-11T18:30:29;7.90;99.90
52941;DHT22;62001;53.366;6.636;2023-02-11T18:32:56;7.90;99.90
52941;DHT22;62001;53.366;6.636;2023-02-11T18:35:22;7.90;99.90
52941;DHT22;62001;53.366;6.636;2023-02-11T18:37:48;7.90;99.90
52941;DHT22;62001;53.366;6.636;2023-02-11T18:40:14;7.80;99.90
52941;DHT22;62001;53.366;6.636;2023-02-11T18:42:40;7.80;99.90
52941;DHT22;62001;53.366;6.636;2023-02-11T18:45:10;7.70;99.90
52941;DHT22;62001;53.366;6.636;2023-02-11T18:47:37;7.60;99.90
52941;DHT22;62001;53.366;6.636;2023-02-11T18:50:04;7.60;99.90
52941;DHT22;62001;53.366;6.636;2023-02-11T18:52:31;7.50;99.90